CheckWX is a tool to help pilots better visualize weather data.  It is not intended as a substitute for an official pre-flight weather briefing.

04:38:24 UTC

CYVO METAR
Val-D'or Airport
Val-D'or, Canada
Current

38 mins ago

CYVO 250400Z AUTO VRB02KT 9SM OVC025 02/01 A2987 RMK SLP136
Observed
Apr-25 @ 04:00 UTC
Wind
  • Variable at 2 KTS
Visibility
9 SM
Flight Rules
MVFR
Cloud Levels
  • Overcast at 2,500' AGL
Temperature
C / 36°F
Dewpoint
C / 34°F
Humidity
93%
Altimeter
29.87" Hg
Pressure
1011.52 hPa
Previous

2 hours ago

CYVO 250300Z AUTO 26003KT 9SM OVC027 02/01 A2987 RMK SLP136
Observed
Apr-25 @ 03:00 UTC
Wind
  • 260° at 3 KTS
Visibility
9 SM
Flight Rules
MVFR
Cloud Levels
  • Overcast at 2,700' AGL
Temperature
C / 36°F
Dewpoint
C / 34°F
Humidity
93%
Altimeter
29.87" Hg
Pressure
1011.52 hPa
Previous

3 hours ago

CYVO 250200Z 23003KT 15SM BKN023 02/01 A2988 RMK SC7 LAST STFD OBS/NEXT 251000UTC SLP139
Observed
Apr-25 @ 02:00 UTC
Wind
  • 230° at 3 KTS
Visibility
15 SM
Flight Rules
MVFR
Cloud Levels
  • Broken at 2,300' AGL
Temperature
C / 36°F
Dewpoint
C / 34°F
Humidity
93%
Altimeter
29.88" Hg
Pressure
1011.82 hPa